sensor_id;sensor_type;location;lat;lon;timestamp;P1;durP1;ratioP1;P2;durP2;ratioP2
6113;SDS011;3087;48.392;10.836;2022-08-03T00:01:55;3.85;;;2.95;;
6113;SDS011;3087;48.392;10.836;2022-08-03T00:04:21;4.22;;;2.70;;
6113;SDS011;3087;48.392;10.836;2022-08-03T00:06:46;3.22;;;2.72;;
6113;SDS011;3087;48.392;10.836;2022-08-03T00:09:12;3.53;;;3.00;;
6113;SDS011;3087;48.392;10.836;2022-08-03T00:11:38;3.90;;;3.60;;
6113;SDS011;3087;48.392;10.836;2022-08-03T00:14:04;5.28;;;2.53;;
6113;SDS011;3087;48.392;10.836;2022-08-03T00:16:30;3.05;;;2.67;;
6113;SDS011;3087;48.392;10.836;2022-08-03T00:18:56;2.90;;;2.70;;
6113;SDS011;3087;48.392;10.836;2022-08-03T00:21:22;2.80;;;2.60;;
6113;SDS011;3087;48.392;10.836;2022-08-03T00:23:47;3.97;;;2.67;;
6113;SDS011;3087;48.392;10.836;2022-08-03T00:26:13;2.70;;;2.50;;
6113;SDS011;3087;48.392;10.836;2022-08-03T00:28:39;3.47;;;2.83;;
6113;SDS011;3087;48.392;10.836;2022-08-03T00:31:05;2.78;;;2.58;;
6113;SDS011;3087;48.392;10.836;2022-08-03T00:33:31;3.15;;;2.25;;
6113;SDS011;3087;48.392;10.836;2022-08-03T00:35:57;2.83;;;2.60;;
6113;SDS011;3087;48.392;10.836;2022-08-03T00:38:22;2.83;;;2.63;;
6113;SDS011;3087;48.392;10.836;2022-08-03T00:40:48;3.47;;;2.70;;
6113;SDS011;3087;48.392;10.836;2022-08-03T00:43:14;3.28;;;2.97;;
6113;SDS011;3087;48.392;10.836;2022-08-03T00:45:40;3.35;;;2.97;;
6113;SDS011;3087;48.392;10.836;2022-08-03T00:48:07;3.03;;;2.78;;
6113;SDS011;3087;48.392;10.836;2022-08-03T00:50:34;2.83;;;2.60;;
6113;SDS011;3087;48.392;10.836;2022-08-03T00:53:04;3.08;;;2.78;;
6113;SDS011;3087;48.392;10.836;2022-08-03T00:55:31;3.08;;;2.78;;
6113;SDS011;3087;48.392;10.836;2022-08-03T00:57:57;5.05;;;3.30;;
6113;SDS011;3087;48.392;10.836;2022-08-03T01:00:25;3.08;;;2.83;;
6113;SDS011;3087;48.392;10.836;2022-08-03T01:02:52;5.38;;;3.13;;
6113;SDS011;3087;48.392;10.836;2022-08-03T01:05:18;3.53;;;3.22;;
6113;SDS011;3087;48.392;10.836;2022-08-03T01:10:46;2.83;;;2.40;;
6113;SDS011;3087;48.392;10.836;2022-08-03T01:19:07;4.20;;;3.08;;
6113;SDS011;3087;48.392;10.836;2022-08-03T01:30:06;2.83;;;2.40;;
6113;SDS011;3087;48.392;10.836;2022-08-03T01:32:34;2.78;;;2.58;;
6113;SDS011;3087;48.392;10.836;2022-08-03T01:35:16;3.30;;;2.53;;
6113;SDS011;3087;48.392;10.836;2022-08-03T01:38:04;2.92;;;2.70;;
6113;SDS011;3087;48.392;10.836;2022-08-03T01:40:35;2.95;;;2.65;;
6113;SDS011;3087;48.392;10.836;2022-08-03T01:43:03;3.25;;;2.95;;
6113;SDS011;3087;48.392;10.836;2022-08-03T01:45:31;3.58;;;2.67;;
6113;SDS011;3087;48.392;10.836;2022-08-03T01:47:58;2.67;;;2.40;;
6113;SDS011;3087;48.392;10.836;2022-08-03T01:50:27;4.22;;;2.75;;
6113;SDS011;3087;48.392;10.836;2022-08-03T01:52:55;2.95;;;2.75;;
6113;SDS011;3087;48.392;10.836;2022-08-03T01:55:22;3.30;;;2.72;;
6113;SDS011;3087;48.392;10.836;2022-08-03T01:57:48;5.38;;;2.88;;
6113;SDS011;3087;48.392;10.836;2022-08-03T02:00:16;3.13;;;2.75;;
6113;SDS011;3087;48.392;10.836;2022-08-03T02:02:43;2.80;;;2.60;;
6113;SDS011;3087;48.392;10.836;2022-08-03T02:05:11;3.25;;;2.72;;
6113;SDS011;3087;48.392;10.836;2022-08-03T02:07:39;4.05;;;2.90;;
6113;SDS011;3087;48.392;10.836;2022-08-03T02:10:06;3.25;;;2.95;;
6113;SDS011;3087;48.392;10.836;2022-08-03T02:12:34;3.25;;;2.95;;
6113;SDS011;3087;48.392;10.836;2022-08-03T02:15:02;2.75;;;2.50;;
6113;SDS011;3087;48.392;10.836;2022-08-03T02:17:29;5.22;;;2.70;;
6113;SDS011;3087;48.392;10.836;2022-08-03T02:19:57;4.03;;;2.92;;
6113;SDS011;3087;48.392;10.836;2022-08-03T02:22:24;3.20;;;2.67;;
6113;SDS011;3087;48.392;10.836;2022-08-03T02:24:50;3.65;;;2.92;;
6113;SDS011;3087;48.392;10.836;2022-08-03T02:27:25;3.15;;;2.85;;
6113;SDS011;3087;48.392;10.836;2022-08-03T02:29:54;12.15;;;10.85;;
6113;SDS011;3087;48.392;10.836;2022-08-03T02:32:27;5.85;;;3.25;;
6113;SDS011;3087;48.392;10.836;2022-08-03T02:34:55;3.60;;;3.30;;
6113;SDS011;3087;48.392;10.836;2022-08-03T02:37:24;4.32;;;3.25;;
6113;SDS011;3087;48.392;10.836;2022-08-03T02:39:54;5.13;;;3.72;;
6113;SDS011;3087;48.392;10.836;2022-08-03T02:42:25;3.22;;;2.90;;
6113;SDS011;3087;48.392;10.836;2022-08-03T02:44:53;4.22;;;3.55;;
6113;SDS011;3087;48.392;10.836;2022-08-03T02:47:21;3.90;;;3.05;;
6113;SDS011;3087;48.392;10.836;2022-08-03T02:49:48;4.57;;;3.75;;
6113;SDS011;3087;48.392;10.836;2022-08-03T02:52:15;4.35;;;3.60;;
6113;SDS011;3087;48.392;10.836;2022-08-03T02:54:42;8.75;;;7.80;;
6113;SDS011;3087;48.392;10.836;2022-08-03T02:57:10;5.90;;;5.28;;
6113;SDS011;3087;48.392;10.836;2022-08-03T02:59:38;4.60;;;4.15;;
6113;SDS011;3087;48.392;10.836;2022-08-03T03:02:04;3.55;;;3.25;;
6113;SDS011;3087;48.392;10.836;2022-08-03T03:04:31;4.05;;;3.65;;
6113;SDS011;3087;48.392;10.836;2022-08-03T03:06:57;5.15;;;3.95;;
6113;SDS011;3087;48.392;10.836;2022-08-03T03:09:24;6.10;;;3.47;;
6113;SDS011;3087;48.392;10.836;2022-08-03T03:11:50;3.60;;;3.30;;
6113;SDS011;3087;48.392;10.836;2022-08-03T03:14:17;3.28;;;2.97;;
6113;SDS011;3087;48.392;10.836;2022-08-03T03:16:44;4.57;;;3.63;;
6113;SDS011;3087;48.392;10.836;2022-08-03T03:19:12;4.40;;;3.25;;
6113;SDS011;3087;48.392;10.836;2022-08-03T03:21:39;6.93;;;5.57;;
6113;SDS011;3087;48.392;10.836;2022-08-03T03:24:07;3.85;;;3.28;;
6113;SDS011;3087;48.392;10.836;2022-08-03T03:26:33;3.63;;;3.30;;
6113;SDS011;3087;48.392;10.836;2022-08-03T03:29:00;3.70;;;3.08;;
6113;SDS011;3087;48.392;10.836;2022-08-03T03:31:27;4.75;;;3.70;;
6113;SDS011;3087;48.392;10.836;2022-08-03T03:33:53;4.22;;;3.75;;
6113;SDS011;3087;48.392;10.836;2022-08-03T03:36:21;4.63;;;3.63;;
6113;SDS011;3087;48.392;10.836;2022-08-03T03:38:47;4.28;;;3.80;;
6113;SDS011;3087;48.392;10.836;2022-08-03T03:41:13;5.07;;;3.70;;
6113;SDS011;3087;48.392;10.836;2022-08-03T03:43:39;5.65;;;3.45;;
6113;SDS011;3087;48.392;10.836;2022-08-03T03:46:05;6.72;;;3.60;;
6113;SDS011;3087;48.392;10.836;2022-08-03T03:48:31;3.55;;;3.15;;
6113;SDS011;3087;48.392;10.836;2022-08-03T03:50:57;4.78;;;3.70;;
6113;SDS011;3087;48.392;10.836;2022-08-03T03:53:23;3.75;;;3.42;;
6113;SDS011;3087;48.392;10.836;2022-08-03T03:55:50;8.13;;;3.30;;
6113;SDS011;3087;48.392;10.836;2022-08-03T03:58:17;4.88;;;4.13;;
6113;SDS011;3087;48.392;10.836;2022-08-03T04:00:45;4.80;;;4.00;;
6113;SDS011;3087;48.392;10.836;2022-08-03T04:03:10;4.57;;;3.88;;
6113;SDS011;3087;48.392;10.836;2022-08-03T04:05:36;4.80;;;4.10;;
6113;SDS011;3087;48.392;10.836;2022-08-03T04:08:20;5.85;;;3.78;;
6113;SDS011;3087;48.392;10.836;2022-08-03T04:13:37;4.57;;;4.15;;
6113;SDS011;3087;48.392;10.836;2022-08-03T04:16:06;5.65;;;3.95;;
6113;SDS011;3087;48.392;10.836;2022-08-03T04:18:36;5.53;;;4.15;;
6113;SDS011;3087;48.392;10.836;2022-08-03T04:21:05;4.03;;;3.50;;
6113;SDS011;3087;48.392;10.836;2022-08-03T04:23:36;5.95;;;3.83;;
6113;SDS011;3087;48.392;10.836;2022-08-03T04:26:07;4.78;;;3.60;;
6113;SDS011;3087;48.392;10.836;2022-08-03T04:28:36;5.60;;;3.72;;
6113;SDS011;3087;48.392;10.836;2022-08-03T04:31:04;4.72;;;3.75;;
6113;SDS011;3087;48.392;10.836;2022-08-03T04:33:31;5.47;;;3.92;;
6113;SDS011;3087;48.392;10.836;2022-08-03T04:35:59;5.88;;;4.45;;
6113;SDS011;3087;48.392;10.836;2022-08-03T04:38:28;9.30;;;4.05;;
6113;SDS011;3087;48.392;10.836;2022-08-03T04:41:00;4.40;;;4.00;;
6113;SDS011;3087;48.392;10.836;2022-08-03T04:43:26;5.97;;;4.88;;
6113;SDS011;3087;48.392;10.836;2022-08-03T04:45:53;5.97;;;4.90;;
6113;SDS011;3087;48.392;10.836;2022-08-03T04:48:19;8.43;;;4.45;;
6113;SDS011;3087;48.392;10.836;2022-08-03T04:50:46;6.55;;;4.20;;
6113;SDS011;3087;48.392;10.836;2022-08-03T04:53:12;5.63;;;4.05;;
6113;SDS011;3087;48.392;10.836;2022-08-03T04:55:37;10.05;;;4.32;;
6113;SDS011;3087;48.392;10.836;2022-08-03T04:58:03;5.53;;;4.38;;
6113;SDS011;3087;48.392;10.836;2022-08-03T05:00:30;5.93;;;3.88;;
6113;SDS011;3087;48.392;10.836;2022-08-03T05:02:56;4.63;;;3.92;;
6113;SDS011;3087;48.392;10.836;2022-08-03T05:05:22;4.22;;;3.63;;
6113;SDS011;3087;48.392;10.836;2022-08-03T05:07:48;4.05;;;3.65;;
6113;SDS011;3087;48.392;10.836;2022-08-03T05:10:14;4.90;;;4.10;;
6113;SDS011;3087;48.392;10.836;2022-08-03T05:12:40;6.95;;;4.18;;
6113;SDS011;3087;48.392;10.836;2022-08-03T05:15:06;5.50;;;3.72;;
6113;SDS011;3087;48.392;10.836;2022-08-03T05:17:32;7.13;;;4.25;;
6113;SDS011;3087;48.392;10.836;2022-08-03T05:19:58;4.35;;;3.30;;
6113;SDS011;3087;48.392;10.836;2022-08-03T05:22:24;4.22;;;2.88;;
6113;SDS011;3087;48.392;10.836;2022-08-03T05:24:50;4.55;;;3.65;;
6113;SDS011;3087;48.392;10.836;2022-08-03T05:27:16;5.13;;;3.92;;
6113;SDS011;3087;48.392;10.836;2022-08-03T05:29:47;5.53;;;4.20;;
6113;SDS011;3087;48.392;10.836;2022-08-03T05:32:14;6.00;;;4.75;;
6113;SDS011;3087;48.392;10.836;2022-08-03T05:34:40;9.32;;;5.60;;
6113;SDS011;3087;48.392;10.836;2022-08-03T05:37:06;8.65;;;3.97;;
6113;SDS011;3087;48.392;10.836;2022-08-03T05:39:32;6.13;;;4.53;;
6113;SDS011;3087;48.392;10.836;2022-08-03T05:41:58;6.05;;;4.03;;
6113;SDS011;3087;48.392;10.836;2022-08-03T05:44:23;4.32;;;3.92;;
6113;SDS011;3087;48.392;10.836;2022-08-03T05:46:49;6.35;;;4.47;;
6113;SDS011;3087;48.392;10.836;2022-08-03T05:49:15;5.05;;;4.10;;
6113;SDS011;3087;48.392;10.836;2022-08-03T05:51:41;10.63;;;6.45;;
6113;SDS011;3087;48.392;10.836;2022-08-03T05:54:07;7.90;;;4.25;;
6113;SDS011;3087;48.392;10.836;2022-08-03T05:56:32;8.43;;;4.50;;
6113;SDS011;3087;48.392;10.836;2022-08-03T05:58:58;5.60;;;4.25;;
6113;SDS011;3087;48.392;10.836;2022-08-03T06:01:23;7.32;;;4.22;;
6113;SDS011;3087;48.392;10.836;2022-08-03T06:03:49;6.38;;;4.57;;
6113;SDS011;3087;48.392;10.836;2022-08-03T06:06:16;6.93;;;4.45;;
6113;SDS011;3087;48.392;10.836;2022-08-03T06:08:43;7.03;;;3.80;;
6113;SDS011;3087;48.392;10.836;2022-08-03T06:11:09;5.75;;;3.50;;
6113;SDS011;3087;48.392;10.836;2022-08-03T06:13:36;7.10;;;4.32;;
6113;SDS011;3087;48.392;10.836;2022-08-03T06:16:02;8.68;;;4.53;;
6113;SDS011;3087;48.392;10.836;2022-08-03T06:18:27;8.45;;;4.30;;
6113;SDS011;3087;48.392;10.836;2022-08-03T06:20:53;8.15;;;4.65;;
6113;SDS011;3087;48.392;10.836;2022-08-03T06:23:19;5.68;;;4.22;;
6113;SDS011;3087;48.392;10.836;2022-08-03T06:25:45;4.20;;;3.80;;
6113;SDS011;3087;48.392;10.836;2022-08-03T06:28:11;8.73;;;4.10;;
6113;SDS011;3087;48.392;10.836;2022-08-03T06:30:42;6.38;;;3.30;;
6113;SDS011;3087;48.392;10.836;2022-08-03T06:33:08;4.38;;;3.97;;
6113;SDS011;3087;48.392;10.836;2022-08-03T06:35:34;4.63;;;3.75;;
6113;SDS011;3087;48.392;10.836;2022-08-03T06:38:00;7.55;;;4.55;;
6113;SDS011;3087;48.392;10.836;2022-08-03T06:40:25;4.97;;;4.15;;
6113;SDS011;3087;48.392;10.836;2022-08-03T06:42:58;5.40;;;4.35;;
6113;SDS011;3087;48.392;10.836;2022-08-03T06:45:26;4.38;;;3.67;;
6113;SDS011;3087;48.392;10.836;2022-08-03T06:48:26;4.88;;;3.67;;
6113;SDS011;3087;48.392;10.836;2022-08-03T06:50:44;7.57;;;3.67;;
6113;SDS011;3087;48.392;10.836;2022-08-03T06:53:10;4.70;;;4.05;;
6113;SDS011;3087;48.392;10.836;2022-08-03T06:55:36;7.75;;;5.05;;
6113;SDS011;3087;48.392;10.836;2022-08-03T06:58:02;4.70;;;3.30;;
6113;SDS011;3087;48.392;10.836;2022-08-03T07:00:28;5.57;;;4.13;;
6113;SDS011;3087;48.392;10.836;2022-08-03T07:02:54;5.63;;;4.53;;
6113;SDS011;3087;48.392;10.836;2022-08-03T07:05:20;4.57;;;3.58;;
6113;SDS011;3087;48.392;10.836;2022-08-03T07:07:47;5.45;;;4.05;;
6113;SDS011;3087;48.392;10.836;2022-08-03T07:10:13;4.50;;;4.10;;
6113;SDS011;3087;48.392;10.836;2022-08-03T07:12:39;4.85;;;3.70;;
6113;SDS011;3087;48.392;10.836;2022-08-03T07:15:05;5.05;;;3.85;;
6113;SDS011;3087;48.392;10.836;2022-08-03T07:17:32;6.75;;;4.38;;
6113;SDS011;3087;48.392;10.836;2022-08-03T07:19:59;7.35;;;4.05;;
6113;SDS011;3087;48.392;10.836;2022-08-03T07:22:27;7.10;;;3.97;;
6113;SDS011;3087;48.392;10.836;2022-08-03T07:24:53;4.68;;;4.18;;
6113;SDS011;3087;48.392;10.836;2022-08-03T07:27:18;4.65;;;3.75;;
6113;SDS011;3087;48.392;10.836;2022-08-03T07:29:44;6.30;;;4.10;;
6113;SDS011;3087;48.392;10.836;2022-08-03T07:32:10;4.43;;;4.03;;
6113;SDS011;3087;48.392;10.836;2022-08-03T07:34:35;4.50;;;3.72;;
6113;SDS011;3087;48.392;10.836;2022-08-03T07:37:01;3.90;;;3.20;;
6113;SDS011;3087;48.392;10.836;2022-08-03T07:39:26;3.53;;;3.20;;
6113;SDS011;3087;48.392;10.836;2022-08-03T07:41:52;6.20;;;3.65;;
6113;SDS011;3087;48.392;10.836;2022-08-03T07:44:18;3.80;;;3.03;;
6113;SDS011;3087;48.392;10.836;2022-08-03T07:46:44;4.35;;;3.40;;
6113;SDS011;3087;48.392;10.836;2022-08-03T07:49:10;5.90;;;3.50;;
6113;SDS011;3087;48.392;10.836;2022-08-03T07:51:36;5.55;;;5.05;;
6113;SDS011;3087;48.392;10.836;2022-08-03T07:54:02;3.67;;;3.15;;
6113;SDS011;3087;48.392;10.836;2022-08-03T07:56:28;5.55;;;3.47;;
6113;SDS011;3087;48.392;10.836;2022-08-03T07:58:54;4.05;;;3.58;;
6113;SDS011;3087;48.392;10.836;2022-08-03T08:01:20;6.35;;;4.05;;
6113;SDS011;3087;48.392;10.836;2022-08-03T08:03:47;3.83;;;3.42;;
6113;SDS011;3087;48.392;10.836;2022-08-03T08:06:13;4.97;;;3.63;;
6113;SDS011;3087;48.392;10.836;2022-08-03T08:08:39;7.95;;;3.65;;
6113;SDS011;3087;48.392;10.836;2022-08-03T08:11:05;4.88;;;4.38;;
6113;SDS011;3087;48.392;10.836;2022-08-03T08:13:31;4.70;;;3.85;;
6113;SDS011;3087;48.392;10.836;2022-08-03T08:15:57;4.00;;;3.53;;
6113;SDS011;3087;48.392;10.836;2022-08-03T08:18:23;3.88;;;3.47;;
6113;SDS011;3087;48.392;10.836;2022-08-03T08:20:49;5.38;;;3.47;;
6113;SDS011;3087;48.392;10.836;2022-08-03T08:23:16;4.45;;;3.78;;
6113;SDS011;3087;48.392;10.836;2022-08-03T08:25:47;5.93;;;3.67;;
6113;SDS011;3087;48.392;10.836;2022-08-03T08:28:16;5.47;;;3.40;;
6113;SDS011;3087;48.392;10.836;2022-08-03T08:30:42;7.20;;;4.35;;
6113;SDS011;3087;48.392;10.836;2022-08-03T08:33:08;5.53;;;4.32;;
6113;SDS011;3087;48.392;10.836;2022-08-03T08:35:34;4.97;;;3.90;;
6113;SDS011;3087;48.392;10.836;2022-08-03T08:37:59;2.90;;;2.60;;
6113;SDS011;3087;48.392;10.836;2022-08-03T08:40:25;4.82;;;3.40;;
6113;SDS011;3087;48.392;10.836;2022-08-03T08:42:52;3.30;;;3.00;;
6113;SDS011;3087;48.392;10.836;2022-08-03T08:45:17;3.63;;;3.28;;
6113;SDS011;3087;48.392;10.836;2022-08-03T08:47:44;5.57;;;2.78;;
6113;SDS011;3087;48.392;10.836;2022-08-03T08:50:11;5.72;;;2.75;;
6113;SDS011;3087;48.392;10.836;2022-08-03T08:52:40;4.65;;;2.58;;
6113;SDS011;3087;48.392;10.836;2022-08-03T08:55:08;6.25;;;2.92;;
6113;SDS011;3087;48.392;10.836;2022-08-03T08:57:41;2.78;;;2.55;;
6113;SDS011;3087;48.392;10.836;2022-08-03T09:00:11;4.95;;;2.60;;
6113;SDS011;3087;48.392;10.836;2022-08-03T09:02:41;2.80;;;2.60;;
6113;SDS011;3087;48.392;10.836;2022-08-03T09:05:15;2.65;;;2.35;;
6113;SDS011;3087;48.392;10.836;2022-08-03T09:07:42;2.53;;;2.28;;
6113;SDS011;3087;48.392;10.836;2022-08-03T09:10:10;2.70;;;2.50;;
6113;SDS011;3087;48.392;10.836;2022-08-03T09:12:46;2.72;;;2.53;;
6113;SDS011;3087;48.392;10.836;2022-08-03T09:15:16;3.00;;;2.70;;
6113;SDS011;3087;48.392;10.836;2022-08-03T09:17:42;2.97;;;2.55;;
6113;SDS011;3087;48.392;10.836;2022-08-03T09:20:08;2.60;;;2.40;;
6113;SDS011;3087;48.392;10.836;2022-08-03T09:22:34;4.38;;;2.35;;
6113;SDS011;3087;48.392;10.836;2022-08-03T09:25:04;4.80;;;2.63;;
6113;SDS011;3087;48.392;10.836;2022-08-03T09:27:42;2.60;;;2.40;;
6113;SDS011;3087;48.392;10.836;2022-08-03T09:30:13;3.67;;;3.00;;
6113;SDS011;3087;48.392;10.836;2022-08-03T09:32:40;3.47;;;2.17;;
6113;SDS011;3087;48.392;10.836;2022-08-03T09:35:08;4.65;;;2.42;;
6113;SDS011;3087;48.392;10.836;2022-08-03T09:37:35;2.45;;;2.25;;
6113;SDS011;3087;48.392;10.836;2022-08-03T09:40:00;3.72;;;2.30;;
6113;SDS011;3087;48.392;10.836;2022-08-03T09:42:26;3.08;;;2.30;;
6113;SDS011;3087;48.392;10.836;2022-08-03T09:44:52;5.35;;;2.60;;
6113;SDS011;3087;48.392;10.836;2022-08-03T09:47:34;6.32;;;2.83;;
6113;SDS011;3087;48.392;10.836;2022-08-03T09:50:01;3.60;;;2.47;;
6113;SDS011;3087;48.392;10.836;2022-08-03T09:52:36;2.47;;;2.28;;
6113;SDS011;3087;48.392;10.836;2022-08-03T09:55:10;2.97;;;2.10;;
6113;SDS011;3087;48.392;10.836;2022-08-03T09:57:37;15.05;;;3.42;;
6113;SDS011;3087;48.392;10.836;2022-08-03T10:00:08;4.95;;;2.50;;
6113;SDS011;3087;48.392;10.836;2022-08-03T10:02:39;2.50;;;2.28;;
6113;SDS011;3087;48.392;10.836;2022-08-03T10:05:06;2.45;;;2.22;;
6113;SDS011;3087;48.392;10.836;2022-08-03T10:07:46;2.33;;;2.13;;
6113;SDS011;3087;48.392;10.836;2022-08-03T10:10:14;2.40;;;2.15;;
6113;SDS011;3087;48.392;10.836;2022-08-03T10:12:40;2.50;;;2.30;;
6113;SDS011;3087;48.392;10.836;2022-08-03T10:15:07;3.35;;;2.33;;
6113;SDS011;3087;48.392;10.836;2022-08-03T10:17:34;8.55;;;2.65;;
6113;SDS011;3087;48.392;10.836;2022-08-03T10:19:59;3.72;;;2.20;;
6113;SDS011;3087;48.392;10.836;2022-08-03T10:22:27;2.83;;;1.98;;
6113;SDS011;3087;48.392;10.836;2022-08-03T10:25:02;4.40;;;2.13;;
6113;SDS011;3087;48.392;10.836;2022-08-03T10:27:41;3.58;;;2.35;;
6113;SDS011;3087;48.392;10.836;2022-08-03T10:30:11;2.45;;;2.25;;
6113;SDS011;3087;48.392;10.836;2022-08-03T10:32:41;2.65;;;2.10;;
6113;SDS011;3087;48.392;10.836;2022-08-03T10:35:13;3.78;;;2.22;;
6113;SDS011;3087;48.392;10.836;2022-08-03T10:37:58;2.60;;;2.00;;
6113;SDS011;3087;48.392;10.836;2022-08-03T10:40:31;3.15;;;2.20;;
6113;SDS011;3087;48.392;10.836;2022-08-03T10:43:06;2.38;;;2.05;;
6113;SDS011;3087;48.392;10.836;2022-08-03T10:45:40;2.22;;;2.03;;
6113;SDS011;3087;48.392;10.836;2022-08-03T10:48:06;2.97;;;1.90;;
6113;SDS011;3087;48.392;10.836;2022-08-03T10:50:33;4.85;;;2.10;;
6113;SDS011;3087;48.392;10.836;2022-08-03T10:52:59;22.20;;;4.60;;
6113;SDS011;3087;48.392;10.836;2022-08-03T10:55:31;10.43;;;2.72;;
6113;SDS011;3087;48.392;10.836;2022-08-03T11:01:09;2.28;;;2.03;;
6113;SDS011;3087;48.392;10.836;2022-08-03T11:06:18;2.70;;;2.30;;
6113;SDS011;3087;48.392;10.836;2022-08-03T11:08:45;3.65;;;1.98;;
6113;SDS011;3087;48.392;10.836;2022-08-03T11:16:36;7.57;;;3.17;;
6113;SDS011;3087;48.392;10.836;2022-08-03T11:19:04;3.72;;;2.30;;
6113;SDS011;3087;48.392;10.836;2022-08-03T11:35:12;15.38;;;3.50;;
6113;SDS011;3087;48.392;10.836;2022-08-03T11:45:56;2.40;;;2.05;;
6113;SDS011;3087;48.392;10.836;2022-08-03T11:48:36;2.72;;;2.15;;
6113;SDS011;3087;48.392;10.836;2022-08-03T11:53:43;3.08;;;2.20;;
6113;SDS011;3087;48.392;10.836;2022-08-03T11:56:11;4.90;;;2.40;;
6113;SDS011;3087;48.392;10.836;2022-08-03T11:58:37;4.13;;;2.20;;
6113;SDS011;3087;48.392;10.836;2022-08-03T12:01:12;2.30;;;2.10;;
6113;SDS011;3087;48.392;10.836;2022-08-03T12:03:40;3.60;;;2.10;;
6113;SDS011;3087;48.392;10.836;2022-08-03T12:06:10;2.80;;;2.10;;
6113;SDS011;3087;48.392;10.836;2022-08-03T12:08:38;2.45;;;2.25;;
6113;SDS011;3087;48.392;10.836;2022-08-03T12:11:05;2.35;;;2.00;;
6113;SDS011;3087;48.392;10.836;2022-08-03T12:13:39;2.30;;;2.10;;
6113;SDS011;3087;48.392;10.836;2022-08-03T12:16:07;1.98;;;1.80;;
6113;SDS011;3087;48.392;10.836;2022-08-03T12:18:33;2.75;;;2.47;;
6113;SDS011;3087;48.392;10.836;2022-08-03T12:21:06;2.35;;;2.15;;
6113;SDS011;3087;48.392;10.836;2022-08-03T12:23:34;2.50;;;2.17;;
6113;SDS011;3087;48.392;10.836;2022-08-03T12:26:04;8.30;;;2.25;;
6113;SDS011;3087;48.392;10.836;2022-08-03T12:28:32;2.72;;;2.10;;
6113;SDS011;3087;48.392;10.836;2022-08-03T12:31:02;2.63;;;2.42;;
6113;SDS011;3087;48.392;10.836;2022-08-03T12:33:30;2.50;;;2.30;;
6113;SDS011;3087;48.392;10.836;2022-08-03T12:38:28;3.00;;;2.10;;
6113;SDS011;3087;48.392;10.836;2022-08-03T12:41:00;2.33;;;2.10;;
6113;SDS011;3087;48.392;10.836;2022-08-03T12:43:27;2.30;;;2.10;;
6113;SDS011;3087;48.392;10.836;2022-08-03T12:46:09;4.40;;;2.50;;
6113;SDS011;3087;48.392;10.836;2022-08-03T12:48:54;2.22;;;2.00;;
6113;SDS011;3087;48.392;10.836;2022-08-03T12:51:32;2.17;;;2.00;;
6113;SDS011;3087;48.392;10.836;2022-08-03T12:54:02;2.97;;;2.17;;
6113;SDS011;3087;48.392;10.836;2022-08-03T12:56:29;3.10;;;2.22;;
6113;SDS011;3087;48.392;10.836;2022-08-03T12:58:54;2.42;;;2.22;;
6113;SDS011;3087;48.392;10.836;2022-08-03T13:01:20;3.22;;;2.40;;
6113;SDS011;3087;48.392;10.836;2022-08-03T13:03:51;3.17;;;2.30;;
6113;SDS011;3087;48.392;10.836;2022-08-03T13:06:21;2.35;;;2.15;;
6113;SDS011;3087;48.392;10.836;2022-08-03T13:08:48;4.28;;;2.10;;
6113;SDS011;3087;48.392;10.836;2022-08-03T13:11:25;3.13;;;2.13;;
6113;SDS011;3087;48.392;10.836;2022-08-03T13:13:52;2.60;;;2.30;;
6113;SDS011;3087;48.392;10.836;2022-08-03T13:16:19;4.25;;;2.22;;
6113;SDS011;3087;48.392;10.836;2022-08-03T13:18:46;2.05;;;1.88;;
6113;SDS011;3087;48.392;10.836;2022-08-03T13:21:16;2.40;;;2.15;;
6113;SDS011;3087;48.392;10.836;2022-08-03T13:23:42;2.13;;;1.67;;
6113;SDS011;3087;48.392;10.836;2022-08-03T13:26:09;3.42;;;2.08;;
6113;SDS011;3087;48.392;10.836;2022-08-03T13:28:35;2.45;;;2.05;;
6113;SDS011;3087;48.392;10.836;2022-08-03T13:31:01;2.33;;;2.00;;
6113;SDS011;3087;48.392;10.836;2022-08-03T13:33:27;2.53;;;2.33;;
6113;SDS011;3087;48.392;10.836;2022-08-03T13:35:53;4.22;;;2.20;;
6113;SDS011;3087;48.392;10.836;2022-08-03T13:38:19;2.28;;;1.80;;
6113;SDS011;3087;48.392;10.836;2022-08-03T13:40:45;2.08;;;1.88;;
6113;SDS011;3087;48.392;10.836;2022-08-03T13:43:10;2.92;;;2.42;;
6113;SDS011;3087;48.392;10.836;2022-08-03T13:45:36;2.28;;;2.08;;
6113;SDS011;3087;48.392;10.836;2022-08-03T13:48:03;2.30;;;2.10;;
6113;SDS011;3087;48.392;10.836;2022-08-03T13:50:29;3.78;;;2.20;;
6113;SDS011;3087;48.392;10.836;2022-08-03T13:52:57;2.70;;;2.15;;
6113;SDS011;3087;48.392;10.836;2022-08-03T13:55:23;3.45;;;2.05;;
6113;SDS011;3087;48.392;10.836;2022-08-03T13:57:49;2.17;;;1.95;;
6113;SDS011;3087;48.392;10.836;2022-08-03T14:00:15;2.97;;;2.15;;
6113;SDS011;3087;48.392;10.836;2022-08-03T14:02:42;3.40;;;2.17;;
6113;SDS011;3087;48.392;10.836;2022-08-03T14:05:08;3.28;;;2.00;;
6113;SDS011;3087;48.392;10.836;2022-08-03T14:07:33;3.10;;;2.15;;
6113;SDS011;3087;48.392;10.836;2022-08-03T14:09:59;2.78;;;2.10;;
6113;SDS011;3087;48.392;10.836;2022-08-03T14:12:25;3.70;;;2.13;;
6113;SDS011;3087;48.392;10.836;2022-08-03T14:14:51;3.08;;;2.50;;
6113;SDS011;3087;48.392;10.836;2022-08-03T14:17:17;2.35;;;2.15;;
6113;SDS011;3087;48.392;10.836;2022-08-03T14:19:43;1.98;;;1.83;;
6113;SDS011;3087;48.392;10.836;2022-08-03T14:22:09;2.92;;;2.00;;
6113;SDS011;3087;48.392;10.836;2022-08-03T14:24:34;1.92;;;1.83;;
6113;SDS011;3087;48.392;10.836;2022-08-03T14:27:00;2.70;;;1.95;;
6113;SDS011;3087;48.392;10.836;2022-08-03T14:29:26;3.92;;;2.10;;
6113;SDS011;3087;48.392;10.836;2022-08-03T14:31:51;2.50;;;2.30;;
6113;SDS011;3087;48.392;10.836;2022-08-03T14:34:17;2.40;;;2.08;;
6113;SDS011;3087;48.392;10.836;2022-08-03T14:36:43;6.13;;;2.17;;
6113;SDS011;3087;48.392;10.836;2022-08-03T14:39:08;3.67;;;2.33;;
6113;SDS011;3087;48.392;10.836;2022-08-03T14:41:34;4.82;;;3.67;;
6113;SDS011;3087;48.392;10.836;2022-08-03T14:43:59;2.75;;;2.45;;
6113;SDS011;3087;48.392;10.836;2022-08-03T14:46:25;3.00;;;2.58;;
6113;SDS011;3087;48.392;10.836;2022-08-03T14:48:51;2.15;;;1.90;;
6113;SDS011;3087;48.392;10.836;2022-08-03T14:51:17;3.10;;;2.65;;
6113;SDS011;3087;48.392;10.836;2022-08-03T14:53:43;4.72;;;2.38;;
6113;SDS011;3087;48.392;10.836;2022-08-03T14:56:10;3.92;;;2.63;;
6113;SDS011;3087;48.392;10.836;2022-08-03T14:58:35;6.25;;;2.45;;
6113;SDS011;3087;48.392;10.836;2022-08-03T15:01:01;3.97;;;2.40;;
6113;SDS011;3087;48.392;10.836;2022-08-03T15:03:27;3.72;;;2.00;;
6113;SDS011;3087;48.392;10.836;2022-08-03T15:05:56;3.40;;;2.38;;
6113;SDS011;3087;48.392;10.836;2022-08-03T15:08:22;4.05;;;2.60;;
6113;SDS011;3087;48.392;10.836;2022-08-03T15:10:48;5.50;;;2.70;;
6113;SDS011;3087;48.392;10.836;2022-08-03T15:13:15;3.72;;;2.72;;
6113;SDS011;3087;48.392;10.836;2022-08-03T15:15:41;4.03;;;3.05;;
6113;SDS011;3087;48.392;10.836;2022-08-03T15:18:07;3.00;;;2.60;;
6113;SDS011;3087;48.392;10.836;2022-08-03T15:20:32;3.03;;;2.50;;
6113;SDS011;3087;48.392;10.836;2022-08-03T15:22:58;3.17;;;2.60;;
6113;SDS011;3087;48.392;10.836;2022-08-03T15:25:24;2.55;;;2.25;;
6113;SDS011;3087;48.392;10.836;2022-08-03T15:27:50;3.17;;;2.45;;
6113;SDS011;3087;48.392;10.836;2022-08-03T15:30:18;3.05;;;2.75;;
6113;SDS011;3087;48.392;10.836;2022-08-03T15:32:44;2.47;;;2.28;;
6113;SDS011;3087;48.392;10.836;2022-08-03T15:35:10;2.83;;;2.30;;
6113;SDS011;3087;48.392;10.836;2022-08-03T15:37:35;3.90;;;3.00;;
6113;SDS011;3087;48.392;10.836;2022-08-03T15:40:01;4.50;;;2.65;;
6113;SDS011;3087;48.392;10.836;2022-08-03T15:42:29;2.97;;;2.50;;
6113;SDS011;3087;48.392;10.836;2022-08-03T15:44:56;4.00;;;2.53;;
6113;SDS011;3087;48.392;10.836;2022-08-03T15:47:22;2.42;;;2.22;;
6113;SDS011;3087;48.392;10.836;2022-08-03T15:49:47;3.63;;;2.55;;
6113;SDS011;3087;48.392;10.836;2022-08-03T15:52:13;2.55;;;2.30;;
6113;SDS011;3087;48.392;10.836;2022-08-03T15:54:39;2.97;;;2.65;;
6113;SDS011;3087;48.392;10.836;2022-08-03T15:57:04;4.30;;;2.45;;
6113;SDS011;3087;48.392;10.836;2022-08-03T15:59:30;4.22;;;2.60;;
6113;SDS011;3087;48.392;10.836;2022-08-03T16:01:56;2.75;;;2.33;;